Time;durP1;ratioP1;P1;durP2;ratioP2;P2;SDS_P1;SDS_P2;PMS_P1;PMS_P2;Temp;Humidity;BMP_temperature;BMP_pressure;BME280_temperature;BME280_humidity;BME280_pressure;Samples;Min_cycle;Max_cycle;Signal;HPM_P1;HPM_P2
2021/09/28 00:01:36;;;;;;;0.90;0.30;;;;;;;13.61;100.00;101313.25;5102973;28;20059;-81
2021/09/28 00:04:09;;;;;;;0.20;0.20;;;;;;;13.50;100.00;101328.09;5114402;27;20059;-80
2021/09/28 00:06:44;;;;;;;0.20;0.20;;;;;;;13.47;100.00;101331.41;5106747;28;20517;-80
2021/09/28 00:09:12;;;;;;;0.20;0.20;;;;;;;13.51;100.00;101343.41;5101032;28;20055;-80
2021/09/28 00:11:40;;;;;;;0.20;0.20;;;;;;;13.50;100.00;101349.97;5103105;28;20055;-81
2021/09/28 00:14:08;;;;;;;0.30;0.30;;;;;;;13.41;100.00;101347.84;5096062;28;20062;-80
2021/09/28 00:16:42;;;;;;;0.30;0.22;;;;;;;13.35;100.00;101348.97;5106031;28;20043;-80
2021/09/28 00:19:17;;;;;;;0.20;0.20;;;;;;;13.34;100.00;101357.41;5104623;28;20036;-80
2021/09/28 00:21:51;;;;;;;0.20;0.20;;;;;;;13.28;100.00;101364.81;5101659;28;20059;-80
2021/09/28 00:24:24;;;;;;;0.28;0.28;;;;;;;13.33;100.00;101364.00;5103984;28;20055;-80
2021/09/28 00:26:53;;;;;;;0.30;0.30;;;;;;;13.27;100.00;101358.56;5102456;28;20153;-80
2021/09/28 00:29:26;;;;;;;0.20;0.20;;;;;;;13.25;100.00;101368.13;5096904;28;20063;-81
2021/09/28 00:31:54;;;;;;;0.17;0.17;;;;;;;13.23;100.00;101362.13;5103777;27;20082;-81
2021/09/28 00:34:22;;;;;;;0.30;0.30;;;;;;;13.12;100.00;101377.75;5098333;28;20062;-81
2021/09/28 00:36:57;;;;;;;0.20;0.20;;;;;;;13.09;100.00;101368.22;5106652;27;20052;-80
2021/09/28 00:39:30;;;;;;;0.20;0.20;;;;;;;13.08;100.00;101366.56;5100602;28;20734;-80
2021/09/28 00:42:03;;;;;;;0.30;0.30;;;;;;;13.06;100.00;101373.41;5098792;28;20055;-79
2021/09/28 00:44:38;;;;;;;0.30;0.30;;;;;;;12.98;100.00;101371.25;5102305;27;20097;-81
2021/09/28 00:47:10;;;;;;;0.20;0.20;;;;;;;12.95;100.00;101363.63;5113014;27;20055;-80
2021/09/28 00:49:49;;;;;;;0.20;0.20;;;;;;;12.98;100.00;101380.28;5104417;28;20040;-81
2021/09/28 00:52:24;;;;;;;0.30;0.28;;;;;;;13.08;100.00;101384.88;5108019;27;20316;-80
2021/09/28 00:54:53;;;;;;;0.30;0.30;;;;;;;13.06;100.00;101387.06;5100947;28;20467;-80
2021/09/28 00:57:26;;;;;;;0.30;0.30;;;;;;;12.91;100.00;101366.91;5103066;28;20118;-80
2021/09/28 01:00:01;;;;;;;0.35;0.35;;;;;;;13.15;100.00;101379.94;5103337;27;20051;-81
2021/09/28 01:02:35;;;;;;;0.15;0.15;;;;;;;13.07;100.00;101383.25;5099531;28;20061;-80
2021/09/28 01:05:03;;;;;;;0.30;0.30;;;;;;;12.99;100.00;101397.47;5098559;28;20830;-80
2021/09/28 01:07:38;;;;;;;0.30;0.30;;;;;;;13.05;100.00;101397.19;5102797;27;20052;-80
2021/09/28 01:10:11;;;;;;;0.32;0.30;;;;;;;13.03;100.00;101406.75;5102214;28;20054;-81
2021/09/28 01:12:44;;;;;;;0.20;0.20;;;;;;;13.01;100.00;101403.47;5096453;28;20056;-80
2021/09/28 01:15:18;;;;;;;0.20;0.20;;;;;;;12.95;100.00;101408.13;5101552;28;20409;-81
2021/09/28 01:17:51;;;;;;;0.30;0.30;;;;;;;12.84;100.00;101410.09;5097213;28;20048;-80
2021/09/28 01:20:24;;;;;;;0.30;0.30;;;;;;;12.87;100.00;101415.00;5101905;28;20044;-80
2021/09/28 01:22:58;;;;;;;0.28;0.28;;;;;;;12.79;100.00;101418.31;5097609;28;20058;-80
2021/09/28 01:25:32;;;;;;;0.20;0.20;;;;;;;12.67;100.00;101410.41;5101649;28;20062;-80
2021/09/28 01:28:06;;;;;;;0.50;0.40;;;;;;;12.71;100.00;101419.66;5098760;28;20042;-79
2021/09/28 01:30:39;;;;;;;0.30;0.30;;;;;;;12.65;100.00;101433.59;5098702;28;20043;-80
2021/09/28 01:33:08;;;;;;;0.60;0.40;;;;;;;12.63;100.00;101435.81;5100511;28;20435;-80
2021/09/28 01:35:38;;;;;;;0.30;0.30;;;;;;;12.58;100.00;101434.72;5097005;28;20811;-80
2021/09/28 01:38:08;;;;;;;0.30;0.30;;;;;;;12.51;100.00;101433.34;5097010;28;20047;-80
2021/09/28 01:40:41;;;;;;;0.47;0.40;;;;;;;12.40;100.00;101438.81;5112566;27;20059;-80
2021/09/28 01:43:11;;;;;;;0.30;0.30;;;;;;;12.46;100.00;101436.09;5099463;27;20047;-79
2021/09/28 01:45:40;;;;;;;0.73;0.50;;;;;;;12.48;100.00;101437.44;5098670;28;20043;-80
2021/09/28 01:48:08;;;;;;;0.20;0.20;;;;;;;12.37;100.00;101428.47;5100204;28;20047;-80
2021/09/28 01:50:37;;;;;;;0.28;0.28;;;;;;;12.41;100.00;101432.28;5112947;27;20051;-80
2021/09/28 01:53:11;;;;;;;0.40;0.40;;;;;;;12.35;100.00;101444.28;5102574;27;20058;-80
2021/09/28 01:55:45;;;;;;;0.30;0.30;;;;;;;12.31;100.00;101445.09;5099969;28;20062;-80
2021/09/28 01:58:18;;;;;;;0.22;0.22;;;;;;;12.32;100.00;101446.72;5096567;28;20048;-80
2021/09/28 02:00:51;;;;;;;0.32;0.32;;;;;;;12.27;100.00;101450.28;5098670;28;20044;-80
2021/09/28 02:03:24;;;;;;;0.20;0.20;;;;;;;12.26;100.00;101451.38;5099208;28;20384;-80
2021/09/28 02:05:57;;;;;;;0.30;0.30;;;;;;;12.18;100.00;101451.91;5101699;28;20044;-80
2021/09/28 02:08:32;;;;;;;0.32;0.32;;;;;;;12.12;100.00;101459.28;5100288;28;20496;-80
2021/09/28 02:11:05;;;;;;;0.30;0.30;;;;;;;12.12;100.00;101462.00;5097404;28;20043;-80
2021/09/28 02:13:33;;;;;;;0.40;0.40;;;;;;;12.11;100.00;101463.09;5115495;27;20059;-80
2021/09/28 02:16:07;;;;;;;0.55;0.40;;;;;;;12.07;100.00;101457.38;5102179;28;20444;-80
2021/09/28 02:18:36;;;;;;;0.32;0.32;;;;;;;12.01;100.00;101454.91;5096238;28;20395;-80
2021/09/28 02:21:09;;;;;;;0.22;0.22;;;;;;;12.06;100.00;101463.91;5098875;28;20050;-80
2021/09/28 02:23:38;;;;;;;0.30;0.30;;;;;;;12.09;100.00;101468.00;5099824;28;20044;-79
2021/09/28 02:26:12;;;;;;;0.30;0.30;;;;;;;12.03;100.00;101471.81;5100607;27;20056;-80
2021/09/28 02:28:45;;;;;;;0.65;0.40;;;;;;;12.01;100.00;101460.34;5098620;28;20052;-80
2021/09/28 02:31:13;;;;;;;0.50;0.30;;;;;;;12.00;100.00;101477.81;5108398;27;20051;-80
2021/09/28 02:33:41;;;;;;;0.30;0.30;;;;;;;12.01;100.00;101479.44;5118065;28;20059;-81
2021/09/28 02:36:09;;;;;;;0.30;0.30;;;;;;;12.02;100.00;101479.16;5102508;28;20044;-80
2021/09/28 02:38:44;;;;;;;0.80;0.40;;;;;;;11.97;100.00;101478.34;5099658;28;20043;-80
2021/09/28 02:41:17;;;;;;;0.30;0.30;;;;;;;12.06;100.00;101482.19;5098788;28;20059;-80
2021/09/28 02:43:50;;;;;;;0.30;0.30;;;;;;;11.97;100.00;101465.50;5101328;28;20048;-80
2021/09/28 02:46:19;;;;;;;0.32;0.30;;;;;;;12.05;100.00;101473.16;5102557;28;20392;-80
2021/09/28 02:48:56;;;;;;;0.40;0.40;;;;;;;11.90;100.00;101468.50;5097616;28;20381;-81
2021/09/28 02:51:29;;;;;;;1.08;0.40;;;;;;;11.87;100.00;101473.66;5101408;28;20058;-80
2021/09/28 02:54:04;;;;;;;0.20;0.20;;;;;;;11.98;100.00;101485.44;5113083;28;20043;-80
2021/09/28 02:56:37;;;;;;;0.30;0.30;;;;;;;11.85;100.00;101478.56;5109528;28;20043;-80
2021/09/28 02:59:05;;;;;;;0.40;0.40;;;;;;;11.97;100.00;101481.06;5097591;28;20047;-79
2021/09/28 03:01:33;;;;;;;0.30;0.30;;;;;;;11.93;100.00;101488.13;5097263;28;20055;-80
2021/09/28 03:04:07;;;;;;;0.57;0.40;;;;;;;12.00;100.00;101483.25;5096107;28;20170;-81
2021/09/28 03:06:35;;;;;;;0.30;0.30;;;;;;;11.96;100.00;101487.59;5096530;28;20056;-80
2021/09/28 03:09:09;;;;;;;0.40;0.40;;;;;;;11.99;100.00;101485.19;5101772;28;20051;-80
2021/09/28 03:11:42;;;;;;;0.40;0.40;;;;;;;11.88;100.00;101487.03;5103689;28;20058;-80
2021/09/28 03:14:16;;;;;;;0.40;0.40;;;;;;;11.87;100.00;101488.09;5104023;28;20392;-80
2021/09/28 03:16:50;;;;;;;0.43;0.30;;;;;;;11.93;100.00;101490.84;5100554;28;20048;-80
2021/09/28 03:19:24;;;;;;;0.50;0.35;;;;;;;11.94;100.00;101490.63;5101515;28;20043;-80
2021/09/28 03:21:53;;;;;;;0.40;0.40;;;;;;;11.90;100.00;101489.47;5101337;28;20048;-81
2021/09/28 03:24:27;;;;;;;0.40;0.40;;;;;;;11.71;100.00;101489.97;5108873;27;20566;-81
2021/09/28 03:27:01;;;;;;;0.30;0.30;;;;;;;11.76;100.00;101496.53;5102971;28;20043;-80
2021/09/28 03:29:34;;;;;;;0.30;0.30;;;;;;;11.74;100.00;101489.44;5107041;28;20055;-80
2021/09/28 03:32:08;;;;;;;0.30;0.30;;;;;;;11.81;100.00;101488.38;5101437;28;20055;-80
2021/09/28 03:34:41;;;;;;;0.38;0.32;;;;;;;11.74;100.00;101491.34;5106438;28;20051;-81
2021/09/28 03:37:14;;;;;;;0.30;0.30;;;;;;;11.89;100.00;101499.59;5103100;28;20039;-80
2021/09/28 03:39:44;;;;;;;0.40;0.40;;;;;;;11.86;100.00;101504.75;5103148;28;20044;-81
2021/09/28 03:42:17;;;;;;;0.30;0.30;;;;;;;11.88;100.00;101511.56;5104027;27;20478;-80
2021/09/28 03:44:50;;;;;;;0.35;0.35;;;;;;;11.82;100.00;101512.66;5103404;28;20048;-79
2021/09/28 03:47:23;;;;;;;0.38;0.38;;;;;;;11.81;100.00;101508.28;5103740;28;20613;-81
2021/09/28 03:49:56;;;;;;;0.40;0.40;;;;;;;11.84;100.00;101512.38;5102562;28;20043;-80
2021/09/28 03:52:29;;;;;;;0.40;0.40;;;;;;;11.82;100.00;101523.56;5100948;28;20062;-80
2021/09/28 03:55:05;;;;;;;0.50;0.47;;;;;;;11.95;100.00;101532.38;5102191;28;20067;-80
2021/09/28 03:57:38;;;;;;;0.40;0.40;;;;;;;11.93;100.00;101529.03;5103919;28;20457;-80
2021/09/28 04:00:12;;;;;;;0.40;0.40;;;;;;;11.87;100.00;101539.94;5103829;28;20047;-80
2021/09/28 04:02:45;;;;;;;0.47;0.47;;;;;;;11.88;100.00;101532.59;5101389;28;20060;-80
2021/09/28 04:05:18;;;;;;;0.55;0.40;;;;;;;11.83;100.00;101536.09;5105489;28;20051;-80
2021/09/28 04:07:51;;;;;;;0.40;0.30;;;;;;;11.91;100.00;101541.03;5105881;28;20042;-80
2021/09/28 04:10:21;;;;;;;0.52;0.45;;;;;;;11.90;100.00;101542.16;5101195;28;20059;-80
2021/09/28 04:12:54;;;;;;;0.40;0.40;;;;;;;11.98;100.00;101542.75;5101874;28;20036;-80
2021/09/28 04:15:25;;;;;;;0.45;0.45;;;;;;;11.95;100.00;101554.19;5098463;28;20543;-81
2021/09/28 04:17:58;;;;;;;0.65;0.40;;;;;;;11.88;100.00;101543.50;5103611;28;20069;-80
2021/09/28 04:20:33;;;;;;;0.30;0.30;;;;;;;11.93;100.00;101553.59;5097332;28;20044;-80
2021/09/28 04:23:02;;;;;;;1.33;0.35;;;;;;;11.92;100.00;101555.50;5097431;28;20046;-81
2021/09/28 04:25:31;;;;;;;0.65;0.50;;;;;;;11.98;100.00;101562.63;5105153;28;20059;-81
2021/09/28 04:28:05;;;;;;;0.40;0.40;;;;;;;11.95;100.00;101559.66;5101978;28;20044;-81
2021/09/28 04:30:38;;;;;;;0.40;0.40;;;;;;;12.00;100.00;101565.94;5103412;28;20588;-82
2021/09/28 04:33:12;;;;;;;0.30;0.30;;;;;;;11.97;100.00;101562.91;5109284;28;20628;-81
2021/09/28 04:35:40;;;;;;;1.38;0.52;;;;;;;12.00;100.00;101567.81;5104950;28;20075;-81
2021/09/28 04:38:09;;;;;;;0.52;0.43;;;;;;;11.98;100.00;101565.38;5103778;28;20058;-81
2021/09/28 04:40:43;;;;;;;0.38;0.38;;;;;;;11.87;100.00;101569.94;5103699;28;20044;-81
2021/09/28 04:43:17;;;;;;;0.43;0.35;;;;;;;11.98;100.00;101583.66;5106176;28;20055;-81
2021/09/28 04:45:50;;;;;;;1.23;0.50;;;;;;;11.96;100.00;101577.63;5105812;28;20048;-81
2021/09/28 04:48:23;;;;;;;0.40;0.40;;;;;;;11.93;100.00;101586.31;5102888;28;20056;-81
2021/09/28 04:50:56;;;;;;;0.55;0.47;;;;;;;11.85;100.00;101591.22;5103440;28;20055;-80
2021/09/28 04:53:29;;;;;;;0.50;0.47;;;;;;;11.84;100.00;101597.75;5098545;28;20039;-81
2021/09/28 04:56:04;;;;;;;0.40;0.40;;;;;;;11.87;100.00;101601.84;5103932;28;20070;-81
2021/09/28 04:58:37;;;;;;;0.40;0.40;;;;;;;11.89;100.00;101599.66;5103489;28;20052;-81
2021/09/28 05:01:06;;;;;;;0.93;0.50;;;;;;;11.82;100.00;101612.72;5104797;28;20062;-81
2021/09/28 05:03:39;;;;;;;1.02;0.50;;;;;;;11.71;100.00;101606.41;5104577;28;20055;-80
2021/09/28 05:06:14;;;;;;;1.17;0.40;;;;;;;11.82;100.00;101610.84;5104434;28;20043;-81
2021/09/28 05:08:42;;;;;;;0.90;0.40;;;;;;;11.78;100.00;101620.63;5099188;28;20056;-81
2021/09/28 05:11:17;;;;;;;0.57;0.40;;;;;;;11.74;100.00;101630.44;5102836;28;20063;-81
2021/09/28 05:13:51;;;;;;;0.85;0.50;;;;;;;11.69;100.00;101631.19;5103282;27;20059;-81
2021/09/28 05:16:24;;;;;;;0.47;0.47;;;;;;;11.74;100.00;101631.25;5106456;28;20074;-81
2021/09/28 05:18:57;;;;;;;0.40;0.40;;;;;;;11.72;100.00;101633.44;5102434;28;20052;-81
2021/09/28 05:21:31;;;;;;;0.65;0.50;;;;;;;11.74;100.00;101635.88;5103208;28;20838;-82
2021/09/28 05:24:04;;;;;;;0.50;0.50;;;;;;;11.63;100.00;101632.28;5099345;28;20036;-81
2021/09/28 05:26:39;;;;;;;0.30;0.30;;;;;;;11.66;100.00;101639.91;5101864;28;20054;-81
2021/09/28 05:29:12;;;;;;;1.20;0.45;;;;;;;11.62;100.00;101641.53;5102615;27;20051;-81
2021/09/28 05:31:40;;;;;;;0.50;0.50;;;;;;;11.62;100.00;101643.44;5103472;28;20047;-82
2021/09/28 05:34:15;;;;;;;0.73;0.50;;;;;;;11.66;100.00;101650.00;5101947;28;20036;-81
2021/09/28 05:36:48;;;;;;;0.43;0.40;;;;;;;11.66;100.00;101650.00;5099111;28;20047;-81
2021/09/28 05:39:22;;;;;;;0.35;0.35;;;;;;;11.72;100.00;101657.13;5100222;28;20044;-81
2021/09/28 05:41:56;;;;;;;0.50;0.50;;;;;;;11.72;100.00;101657.97;5099112;28;20051;-81
2021/09/28 05:44:29;;;;;;;1.00;0.40;;;;;;;11.68;100.00;101656.00;5102030;28;20058;-81
2021/09/28 05:47:03;;;;;;;0.45;0.45;;;;;;;11.71;100.00;101660.94;5099024;28;20051;-81
2021/09/28 05:49:37;;;;;;;0.50;0.50;;;;;;;11.75;100.00;101662.03;5104522;28;20035;-80
2021/09/28 05:52:12;;;;;;;0.63;0.40;;;;;;;11.88;100.00;101664.31;5114583;27;20296;-81
2021/09/28 05:54:48;;;;;;;0.40;0.40;;;;;;;11.74;100.00;101657.69;5103019;28;20077;-81
2021/09/28 05:57:24;;;;;;;0.50;0.50;;;;;;;11.81;100.00;101671.09;5101256;28;20059;-81
2021/09/28 05:59:57;;;;;;;0.60;0.60;;;;;;;11.66;100.00;101672.63;5102361;28;20054;-82
2021/09/28 06:02:30;;;;;;;0.60;0.60;;;;;;;11.62;100.00;101678.88;5096183;28;20055;-82
2021/09/28 06:05:05;;;;;;;0.50;0.50;;;;;;;11.65;100.00;101681.88;5106360;28;20059;-82
2021/09/28 06:07:38;;;;;;;0.50;0.50;;;;;;;11.62;100.00;101684.34;5097251;28;20499;-81
2021/09/28 06:10:11;;;;;;;0.60;0.50;;;;;;;11.59;100.00;101680.22;5100852;28;20066;-81
2021/09/28 06:12:48;;;;;;;0.60;0.60;;;;;;;11.57;100.00;101682.38;5102405;28;20042;-82
2021/09/28 06:15:21;;;;;;;0.57;0.57;;;;;;;11.60;100.00;101673.69;5102055;28;20495;-80
2021/09/28 06:17:55;;;;;;;0.50;0.50;;;;;;;11.54;100.00;101693.81;5099777;28;20498;-81
2021/09/28 06:20:28;;;;;;;0.50;0.50;;;;;;;11.54;100.00;101693.81;5102692;28;20051;-82
2021/09/28 06:23:01;;;;;;;0.60;0.50;;;;;;;11.62;100.00;101689.78;5105076;28;20058;-81
2021/09/28 06:25:30;;;;;;;0.50;0.50;;;;;;;11.78;100.00;101702.44;5101424;28;20062;-82
2021/09/28 06:28:04;;;;;;;0.60;0.60;;;;;;;11.76;100.00;101701.06;5098758;28;20051;-81
2021/09/28 06:30:38;;;;;;;0.40;0.40;;;;;;;11.92;100.00;101705.53;5102000;28;20047;-81
2021/09/28 06:33:11;;;;;;;0.57;0.55;;;;;;;11.77;100.00;101708.16;5096004;28;20423;-81
2021/09/28 06:35:44;;;;;;;0.50;0.50;;;;;;;11.73;100.00;101719.56;5089108;28;20051;-81
2021/09/28 06:38:17;;;;;;;0.47;0.47;;;;;;;11.83;100.00;101718.00;5089635;28;20059;-81
2021/09/28 06:40:50;;;;;;;0.50;0.50;;;;;;;11.87;100.00;101721.84;5094488;28;20510;-82
2021/09/28 06:43:20;;;;;;;0.88;0.60;;;;;;;11.99;100.00;101727.97;5092877;28;20059;-82
2021/09/28 06:45:56;;;;;;;0.60;0.60;;;;;;;12.02;100.00;101732.88;5093675;27;20055;-82
2021/09/28 06:48:30;;;;;;;0.82;0.47;;;;;;;11.95;100.00;101729.59;5096557;28;20052;-84
2021/09/28 06:51:03;;;;;;;0.60;0.60;;;;;;;12.01;100.00;101733.16;5093170;28;20047;-83
2021/09/28 06:53:38;;;;;;;0.60;0.50;;;;;;;12.07;100.00;101735.66;5094400;28;20090;-82
2021/09/28 06:56:11;;;;;;;0.50;0.50;;;;;;;11.78;100.00;101704.34;5099670;28;20051;-84
2021/09/28 06:58:47;;;;;;;0.82;0.52;;;;;;;12.08;100.00;101739.19;5091397;28;20062;-83
2021/09/28 07:01:20;;;;;;;0.43;0.43;;;;;;;12.02;100.00;101737.53;5087870;28;20048;-83
2021/09/28 07:03:49;;;;;;;1.00;0.50;;;;;;;12.11;100.00;101741.41;5090159;28;20059;-83
2021/09/28 07:06:17;;;;;;;0.40;0.40;;;;;;;12.06;100.00;101739.47;5092812;28;20472;-83
2021/09/28 07:08:51;;;;;;;0.50;0.50;;;;;;;11.95;100.00;101742.41;5090548;28;20051;-82
2021/09/28 07:11:19;;;;;;;0.40;0.40;;;;;;;11.97;100.00;101732.03;5089823;28;20051;-82
2021/09/28 07:13:54;;;;;;;0.57;0.50;;;;;;;12.10;100.00;101736.19;5094174;28;20058;-83
2021/09/28 07:16:28;;;;;;;0.50;0.50;;;;;;;12.18;100.00;101732.97;5093099;28;20051;-81
2021/09/28 07:19:01;;;;;;;0.40;0.40;;;;;;;12.22;100.00;101740.38;5093192;28;20490;-81
2021/09/28 07:21:34;;;;;;;0.47;0.45;;;;;;;12.32;100.00;101736.03;5102680;27;20066;-83
2021/09/28 07:24:07;;;;;;;0.40;0.40;;;;;;;12.63;100.00;101730.72;5086413;28;20067;-81
2021/09/28 07:26:41;;;;;;;0.52;0.45;;;;;;;12.68;100.00;101733.50;5086801;28;20969;-81
2021/09/28 07:29:11;;;;;;;0.43;0.43;;;;;;;12.68;100.00;101736.22;5087083;28;20056;-81
2021/09/28 07:31:45;;;;;;;0.60;0.50;;;;;;;12.87;100.00;101731.06;5091878;28;20101;-82
2021/09/28 07:34:18;;;;;;;0.60;0.60;;;;;;;12.85;100.00;101746.91;5088824;28;20062;-82
2021/09/28 07:36:52;;;;;;;0.40;0.40;;;;;;;12.71;100.00;101741.13;5091407;28;20056;-82
2021/09/28 07:39:25;;;;;;;0.40;0.40;;;;;;;12.44;100.00;101736.66;5094975;28;20047;-81
2021/09/28 07:41:53;;;;;;;0.50;0.50;;;;;;;12.64;100.00;101748.75;5088553;28;20051;-82
2021/09/28 07:44:28;;;;;;;0.68;0.50;;;;;;;12.88;100.00;101751.84;5088149;28;20098;-81
2021/09/28 07:46:58;;;;;;;0.40;0.40;;;;;;;12.89;100.00;101745.28;5093231;28;20062;-80
2021/09/28 07:49:32;;;;;;;0.50;0.50;;;;;;;12.82;100.00;101747.47;5087608;28;20062;-81
2021/09/28 07:52:06;;;;;;;0.50;0.50;;;;;;;12.78;100.00;101752.63;5090234;28;20066;-82
2021/09/28 07:54:40;;;;;;;0.50;0.50;;;;;;;12.88;100.00;101738.97;5089195;28;20062;-80
2021/09/28 07:57:09;;;;;;;0.43;0.43;;;;;;;12.89;100.00;101743.34;5092794;28;20047;-80
2021/09/28 07:59:43;;;;;;;0.40;0.40;;;;;;;12.67;100.00;101745.50;5090885;28;21332;-81
2021/09/28 08:02:12;;;;;;;0.30;0.30;;;;;;;12.66;100.00;101754.75;5094321;28;20052;-81
2021/09/28 08:04:41;;;;;;;0.63;0.50;;;;;;;12.56;100.00;101761.81;5091262;28;20071;-81
2021/09/28 08:07:15;;;;;;;0.30;0.30;;;;;;;12.51;100.00;101760.97;5095060;28;20051;-82
2021/09/28 08:09:48;;;;;;;0.70;0.40;;;;;;;12.41;100.00;101754.41;5089945;28;20059;-81
2021/09/28 08:12:16;;;;;;;0.68;0.52;;;;;;;12.50;100.00;101756.63;5092459;28;20044;-81
2021/09/28 08:14:51;;;;;;;0.40;0.40;;;;;;;12.57;100.00;101758.00;5081187;28;21482;-81
2021/09/28 08:17:24;;;;;;;0.40;0.40;;;;;;;12.67;100.00;101759.16;5081290;28;20052;-80
2021/09/28 08:19:58;;;;;;;0.45;0.40;;;;;;;12.61;100.00;101749.28;5077344;28;20054;-81
2021/09/28 08:22:26;;;;;;;0.40;0.40;;;;;;;12.68;100.00;101753.41;5078588;28;20573;-81
2021/09/28 08:24:59;;;;;;;0.20;0.20;;;;;;;12.80;100.00;101755.91;5081404;28;20403;-82
2021/09/28 08:30:27;;;;;;;0.55;0.40;;;;;;;13.02;100.00;101755.72;5078637;28;20055;-81
2021/09/28 08:33:00;;;;;;;0.30;0.30;;;;;;;12.94;100.00;101750.78;5078848;28;20047;-81
2021/09/28 08:35:34;;;;;;;0.40;0.40;;;;;;;13.05;100.00;101757.06;5093373;27;20064;-81
2021/09/28 08:38:10;;;;;;;0.40;0.40;;;;;;;13.21;100.00;101757.91;5080625;28;20077;-81
2021/09/28 08:40:38;;;;;;;0.75;0.40;;;;;;;13.22;100.00;101763.09;5077123;28;20074;-82
2021/09/28 08:43:12;;;;;;;0.35;0.35;;;;;;;13.29;100.00;101751.91;5093458;27;20055;-81
2021/09/28 08:45:46;;;;;;;0.32;0.32;;;;;;;13.35;100.00;101750.00;5083687;28;20058;-82
2021/09/28 08:48:22;;;;;;;0.30;0.30;;;;;;;13.33;100.00;101749.47;5077823;28;20055;-81
2021/09/28 08:50:55;;;;;;;0.20;0.20;;;;;;;13.36;100.00;101743.47;5077739;28;20063;-81
2021/09/28 08:53:23;;;;;;;0.30;0.30;;;;;;;13.36;100.00;101749.75;5081923;28;20067;-81
2021/09/28 08:55:56;;;;;;;0.63;0.40;;;;;;;13.32;100.00;101753.28;5079317;28;20580;-81
2021/09/28 08:58:31;;;;;;;0.30;0.30;;;;;;;13.33;100.00;101750.28;5082574;28;20059;-81
2021/09/28 09:01:09;;;;;;;0.40;0.40;;;;;;;13.39;100.00;101757.41;5081487;28;20563;-81
2021/09/28 09:03:45;;;;;;;0.30;0.30;;;;;;;13.34;100.00;101760.13;5086964;28;21379;-82
2021/09/28 09:06:14;;;;;;;0.30;0.30;;;;;;;13.60;100.00;101751.94;5083641;28;20047;-82
2021/09/28 09:08:48;;;;;;;0.35;0.35;;;;;;;13.63;100.00;101756.06;5080883;28;20051;-81
2021/09/28 09:11:22;;;;;;;0.43;0.43;;;;;;;13.55;100.00;101743.75;5078893;28;21323;-81
2021/09/28 09:13:56;;;;;;;0.30;0.30;;;;;;;13.68;100.00;101754.13;5081375;28;20058;-81
2021/09/28 09:16:36;;;;;;;0.30;0.30;;;;;;;13.72;100.00;101752.47;5085864;28;20044;-83
2021/09/28 09:19:11;;;;;;;0.30;0.30;;;;;;;13.71;100.00;101750.88;5080163;28;20059;-83
2021/09/28 09:21:47;;;;;;;0.38;0.38;;;;;;;13.85;100.00;101753.03;5079276;28;20059;-80
2021/09/28 09:24:42;;;;;;;0.30;0.30;;;;;;;13.84;99.81;101743.19;5086861;28;20056;-83
2021/09/28 09:27:17;;;;;;;0.32;0.32;;;;;;;13.90;100.00;101751.09;5076836;28;20059;-83
2021/09/28 09:29:46;;;;;;;0.30;0.30;;;;;;;13.87;100.00;101746.19;5077344;28;20051;-83
2021/09/28 09:32:20;;;;;;;0.30;0.30;;;;;;;13.95;100.00;101747.53;5081412;28;20043;-82
2021/09/28 09:34:54;;;;;;;0.20;0.20;;;;;;;13.95;100.00;101742.88;5085372;28;21393;-82
2021/09/28 09:37:22;;;;;;;0.98;0.40;;;;;;;14.00;98.34;101739.31;5082970;28;20843;-82
2021/09/28 09:39:54;;;;;;;0.30;0.30;;;;;;;14.34;99.06;101744.16;5083185;28;20484;-81
2021/09/28 09:42:28;;;;;;;0.32;0.30;;;;;;;14.32;98.90;101749.09;5080293;28;20055;-83
2021/09/28 09:45:19;;;;;;;0.30;0.30;;;;;;;14.39;98.19;101746.88;5081518;27;20495;-83
2021/09/28 09:47:54;;;;;;;0.40;0.40;;;;;;;14.41;96.00;101741.94;5078879;28;20047;-83
2021/09/28 09:50:27;;;;;;;0.30;0.30;;;;;;;14.56;95.53;101737.50;5078826;28;20043;-82
2021/09/28 09:53:11;;;;;;;0.30;0.30;;;;;;;14.80;97.61;101740.41;5081502;28;20574;-83
2021/09/28 09:55:45;;;;;;;0.40;0.30;;;;;;;14.68;94.06;101740.75;5085064;28;20058;-82
2021/09/28 09:58:20;;;;;;;0.30;0.30;;;;;;;14.75;96.01;101738.53;5079551;28;20043;-82
2021/09/28 10:00:54;;;;;;;0.25;0.25;;;;;;;14.87;90.92;101740.91;5082016;28;20051;-81
2021/09/28 10:03:23;;;;;;;0.20;0.20;;;;;;;14.92;88.97;101731.88;5079941;28;20665;-83
2021/09/28 10:05:57;;;;;;;0.40;0.30;;;;;;;14.84;87.71;101725.03;5084587;27;20672;-82
2021/09/28 10:08:32;;;;;;;0.30;0.30;;;;;;;14.88;86.96;101726.13;5078679;28;20062;-82
2021/09/28 10:11:06;;;;;;;0.20;0.20;;;;;;;14.97;88.70;101715.41;5076068;28;20055;-81
2021/09/28 10:13:51;;;;;;;0.30;0.30;;;;;;;14.91;89.28;101727.47;5092012;27;20825;-82
2021/09/28 10:16:52;;;;;;;0.30;0.30;;;;;;;14.87;87.62;101720.91;5080884;28;20044;-81
2021/09/28 10:19:50;;;;;;;0.20;0.20;;;;;;;14.79;86.46;101722.34;5085967;28;20117;-83
2021/09/28 10:22:52;;;;;;;0.20;0.20;;;;;;;14.99;87.82;101723.31;5083673;28;20051;-83
2021/09/28 10:25:38;;;;;;;0.30;0.30;;;;;;;14.93;89.84;101728.03;5085709;28;20566;-83
2021/09/28 10:28:31;;;;;;;0.30;0.30;;;;;;;15.02;89.65;101730.97;5094040;27;20073;-82
2021/09/28 10:31:00;;;;;;;0.20;0.20;;;;;;;15.04;86.85;101717.78;5077720;28;20051;-83
2021/09/28 10:33:35;;;;;;;0.28;0.20;;;;;;;14.86;86.98;101720.13;5081697;28;20054;-84
2021/09/28 10:36:13;;;;;;;0.20;0.20;;;;;;;14.86;85.53;101719.28;5080046;28;20118;-82
2021/09/28 10:38:59;;;;;;;0.30;0.30;;;;;;;14.81;89.22;101722.88;5083508;28;20063;-82
2021/09/28 10:41:46;;;;;;;0.20;0.20;;;;;;;14.76;89.29;101717.41;5079994;28;20047;-82
2021/09/28 10:44:47;;;;;;;0.30;0.30;;;;;;;14.79;87.83;101723.16;5084889;28;20048;-83
2021/09/28 10:47:52;;;;;;;0.20;0.20;;;;;;;14.84;89.57;101721.50;5075933;28;20044;-83
2021/09/28 10:50:31;;;;;;;0.20;0.20;;;;;;;14.82;83.96;101716.31;5080966;28;20060;-83
2021/09/28 10:53:08;;;;;;;0.20;0.20;;;;;;;14.83;84.50;101715.22;5083916;28;20387;-83
2021/09/28 10:55:54;;;;;;;0.30;0.30;;;;;;;14.95;84.25;101717.59;5078481;28;20613;-82
2021/09/28 10:58:29;;;;;;;0.43;0.23;;;;;;;15.08;84.27;101716.94;5083131;28;20052;-83
2021/09/28 11:01:09;;;;;;;0.20;0.20;;;;;;;15.05;82.98;101706.56;5082279;28;20321;-82
2021/09/28 11:04:11;;;;;;;0.20;0.20;;;;;;;15.22;82.42;101708.06;5077558;28;20050;-84
2021/09/28 11:07:00;;;;;;;0.20;0.20;;;;;;;15.44;81.18;101702.97;5080618;28;20058;-83
2021/09/28 11:09:49;;;;;;;0.20;0.20;;;;;;;15.43;85.53;101703.25;5080423;28;20121;-82
2021/09/28 11:12:24;;;;;;;0.20;0.20;;;;;;;15.60;86.02;101703.63;5085122;28;20039;-82
2021/09/28 11:15:01;;;;;;;0.20;0.20;;;;;;;15.78;76.82;101691.13;5077619;28;20130;-83
2021/09/28 11:17:35;;;;;;;0.40;0.30;;;;;;;15.70;80.50;101693.66;5076916;28;21008;-83
2021/09/28 11:20:19;;;;;;;0.20;0.20;;;;;;;15.52;78.24;101686.97;5080181;28;20617;-83
2021/09/28 11:22:56;;;;;;;0.20;0.20;;;;;;;15.55;76.85;101692.72;5085356;28;20052;-82
2021/09/28 11:25:27;;;;;;;0.30;0.20;;;;;;;15.48;75.38;101684.81;5078232;28;20058;-83
2021/09/28 11:28:02;;;;;;;0.20;0.20;;;;;;;15.56;77.09;101690.78;5081540;28;20050;-84
2021/09/28 11:30:37;;;;;;;0.20;0.20;;;;;;;15.69;79.89;101694.75;5079957;28;20050;-83
2021/09/28 11:33:11;;;;;;;0.40;0.30;;;;;;;15.60;78.35;101695.38;5078627;28;20060;-84
2021/09/28 11:35:39;;;;;;;0.20;0.20;;;;;;;15.56;76.10;101685.28;5083398;28;20044;-83
2021/09/28 11:38:12;;;;;;;0.20;0.20;;;;;;;15.65;75.42;101687.13;5082606;28;20055;-82
2021/09/28 11:40:48;;;;;;;0.20;0.20;;;;;;;15.56;78.87;101688.03;5079616;28;20066;-83
2021/09/28 11:43:24;;;;;;;0.20;0.20;;;;;;;15.45;77.41;101676.34;5083706;28;20051;-83
2021/09/28 11:46:00;;;;;;;0.20;0.20;;;;;;;15.38;75.52;101684.09;5086023;28;20105;-83
2021/09/28 11:48:38;;;;;;;0.47;0.30;;;;;;;15.25;77.62;101688.31;5080421;28;20048;-84
2021/09/28 11:51:13;;;;;;;0.30;0.30;;;;;;;15.19;75.11;101686.72;5083102;28;20714;-83
2021/09/28 11:53:48;;;;;;;0.30;0.30;;;;;;;15.14;77.15;101685.63;5084820;28;20048;-83